Time;durP1;ratioP1;P1;durP2;ratioP2;P2;SDS_P1;SDS_P2;PMS_P1;PMS_P2;Temp;Humidity;BMP_temperature;BMP_pressure;BME280_temperature;BME280_humidity;BME280_pressure;Samples;Min_cycle;Max_cycle;Signal;HPM_P1;HPM_P2
2021/06/04 00:00:21;;;;;;;;;;;20.10;75.70;;;;;;5054052;28;19920;-72
2021/06/04 00:02:47;;;;;;;;;;;20.10;75.70;;;;;;5054223;28;19956;-71
2021/06/04 00:05:14;;;;;;;;;;;20.00;76.30;;;;;;5054274;28;20340;-71
2021/06/04 00:07:39;;;;;;;;;;;20.10;77.10;;;;;;5069822;28;19952;-71
2021/06/04 00:10:16;;;;;;;;;;;20.00;77.20;;;;;;5054225;28;19940;-71
2021/06/04 00:12:42;;;;;;;;;;;20.00;77.60;;;;;;5053466;28;19994;-70
2021/06/04 00:15:11;;;;;;;;;;;20.00;77.80;;;;;;5053178;28;19909;-70
2021/06/04 00:17:36;;;;;;;;;;;20.00;78.00;;;;;;5054296;28;20320;-71
2021/06/04 00:20:04;;;;;;;;;;;20.00;78.50;;;;;;5053921;28;19965;-70
2021/06/04 00:22:30;;;;;;;;;;;20.10;78.20;;;;;;5054023;28;19920;-70
2021/06/04 00:24:56;;;;;;;;;;;20.00;78.60;;;;;;5053946;28;19909;-70
2021/06/04 00:27:22;;;;;;;;;;;20.00;78.90;;;;;;5038476;28;19913;-70
2021/06/04 00:29:48;;;;;;;;;;;20.10;78.50;;;;;;5033724;28;19924;-70
2021/06/04 00:32:15;;;;;;;;;;;20.10;78.90;;;;;;5034002;28;19909;-70
2021/06/04 00:34:41;;;;;;;;;;;20.00;79.60;;;;;;5033788;28;19928;-70
2021/06/04 00:37:07;;;;;;;;;;;20.00;80.10;;;;;;5034173;28;19919;-72
2021/06/04 00:39:33;;;;;;;;;;;20.00;80.50;;;;;;5033771;28;20016;-72
2021/06/04 00:42:00;;;;;;;;;;;20.00;81.10;;;;;;5049691;28;20292;-72
2021/06/04 00:44:26;;;;;;;;;;;20.00;81.10;;;;;;5053310;28;19913;-70
2021/06/04 00:46:52;;;;;;;;;;;20.00;81.50;;;;;;5053645;28;19920;-71
2021/06/04 00:49:17;;;;;;;;;;;20.00;81.60;;;;;;5053537;28;19932;-71
2021/06/04 00:51:46;;;;;;;;;;;20.00;82.10;;;;;;5053152;28;19913;-71
2021/06/04 00:54:12;;;;;;;;;;;20.00;82.60;;;;;;5052876;28;19913;-71
2021/06/04 00:56:38;;;;;;;;;;;20.00;82.90;;;;;;5053553;28;20331;-71
2021/06/04 00:59:05;;;;;;;;;;;20.00;83.40;;;;;;5053419;28;19936;-70
2021/06/04 01:01:31;;;;;;;;;;;19.90;83.60;;;;;;5052625;28;20006;-70
2021/06/04 01:03:59;;;;;;;;;;;19.90;84.50;;;;;;5052814;28;19909;-71
2021/06/04 01:06:35;;;;;;;;;;;20.00;84.40;;;;;;5053499;28;19912;-71
2021/06/04 01:09:03;;;;;;;;;;;20.00;84.80;;;;;;5054286;28;19960;-71
2021/06/04 01:11:56;;;;;;;;;;;20.00;84.50;;;;;;5053102;28;20341;-71
2021/06/04 01:14:40;;;;;;;;;;;19.90;85.20;;;;;;5054078;28;20022;-72
2021/06/04 01:17:06;;;;;;;;;;;19.90;85.50;;;;;;5053184;28;19913;-72
2021/06/04 01:19:53;;;;;;;;;;;20.00;85.90;;;;;;5033247;28;19916;-72
2021/06/04 01:22:36;;;;;;;;;;;19.90;85.90;;;;;;5050413;28;19913;-70
2021/06/04 01:25:05;;;;;;;;;;;19.90;86.10;;;;;;5052972;28;19917;-71
2021/06/04 01:27:38;;;;;;;;;;;19.90;86.70;;;;;;5052868;28;19913;-70
2021/06/04 01:30:07;;;;;;;;;;;19.90;87.00;;;;;;5052928;28;19928;-71
2021/06/04 01:32:34;;;;;;;;;;;19.80;87.20;;;;;;5053261;28;19917;-71
2021/06/04 01:35:18;;;;;;;;;;;19.90;88.20;;;;;;5052932;28;19915;-70
2021/06/04 01:37:44;;;;;;;;;;;20.00;86.70;;;;;;5068264;28;19913;-72
2021/06/04 01:40:20;;;;;;;;;;;20.00;87.00;;;;;;5052673;28;19999;-72
2021/06/04 01:42:47;;;;;;;;;;;19.90;87.10;;;;;;5042083;28;19913;-72
2021/06/04 01:45:15;;;;;;;;;;;19.90;87.50;;;;;;5052168;28;19917;-70
2021/06/04 01:47:45;;;;;;;;;;;19.90;88.10;;;;;;5052628;28;19916;-71
2021/06/04 01:50:20;;;;;;;;;;;19.80;88.50;;;;;;5052340;28;19923;-71
2021/06/04 01:52:47;;;;;;;;;;;19.80;88.80;;;;;;5051469;28;20359;-71
2021/06/04 01:55:14;;;;;;;;;;;19.70;89.20;;;;;;5052285;28;20378;-71
2021/06/04 01:57:42;;;;;;;;;;;19.70;89.40;;;;;;5052226;28;19966;-71
2021/06/04 02:00:13;;;;;;;;;;;19.70;90.10;;;;;;5067530;28;19908;-71
2021/06/04 02:02:39;;;;;;;;;;;19.70;90.00;;;;;;5051877;28;19913;-70
2021/06/04 02:05:07;;;;;;;;;;;19.80;89.90;;;;;;5051477;28;20012;-71
2021/06/04 02:07:33;;;;;;;;;;;19.70;89.90;;;;;;5051845;28;20439;-70
2021/06/04 02:09:59;;;;;;;;;;;19.70;90.10;;;;;;5051760;28;19995;-71
2021/06/04 02:12:25;;;;;;;;;;;19.80;89.80;;;;;;5051478;28;20016;-72
2021/06/04 02:14:53;;;;;;;;;;;19.80;90.00;;;;;;5051783;28;20415;-70
2021/06/04 02:17:30;;;;;;;;;;;19.70;90.00;;;;;;5051540;28;19990;-70
2021/06/04 02:20:02;;;;;;;;;;;19.70;90.50;;;;;;5051845;28;19908;-70
2021/06/04 02:22:32;;;;;;;;;;;19.70;90.80;;;;;;5051784;28;19913;-70
2021/06/04 02:25:13;;;;;;;;;;;19.70;90.60;;;;;;5051847;28;19909;-70
2021/06/04 02:27:40;;;;;;;;;;;19.70;90.80;;;;;;5051911;28;20259;-70
2021/06/04 02:30:17;;;;;;;;;;;19.60;91.00;;;;;;5051499;28;19931;-70
2021/06/04 02:33:09;;;;;;;;;;;19.60;91.40;;;;;;5051267;28;19916;-70
2021/06/04 02:35:36;;;;;;;;;;;19.60;92.00;;;;;;5048944;28;20308;-70
2021/06/04 02:38:08;;;;;;;;;;;19.50;92.30;;;;;;5051767;28;19917;-71
2021/06/04 02:40:35;;;;;;;;;;;19.50;92.60;;;;;;5051401;28;19958;-71
2021/06/04 02:43:05;;;;;;;;;;;19.50;92.90;;;;;;5051303;28;19920;-72
2021/06/04 02:45:34;;;;;;;;;;;19.50;93.20;;;;;;5051769;28;19944;-71
2021/06/04 02:48:01;;;;;;;;;;;19.50;93.40;;;;;;5051738;28;19916;-70
2021/06/04 02:50:29;;;;;;;;;;;19.50;93.70;;;;;;5051687;28;20013;-70
2021/06/04 02:53:11;;;;;;;;;;;19.50;93.60;;;;;;5051154;28;19913;-71
2021/06/04 02:55:37;;;;;;;;;;;19.40;93.80;;;;;;5051688;28;19908;-71
2021/06/04 02:58:02;;;;;;;;;;;19.50;94.30;;;;;;5051556;28;19916;-71
2021/06/04 03:00:38;;;;;;;;;;;19.40;94.00;;;;;;5051582;28;19909;-71
2021/06/04 03:03:04;;;;;;;;;;;19.40;94.10;;;;;;5052313;28;19994;-71
2021/06/04 03:05:32;;;;;;;;;;;19.40;94.40;;;;;;5055220;28;20381;-70
2021/06/04 03:07:58;;;;;;;;;;;19.40;94.60;;;;;;5055527;28;19909;-70
2021/06/04 03:10:29;;;;;;;;;;;19.40;94.60;;;;;;5054036;28;19913;-70
2021/06/04 03:12:55;;;;;;;;;;;19.40;94.70;;;;;;5054548;28;19943;-69
2021/06/04 03:15:20;;;;;;;;;;;19.40;95.10;;;;;;5055587;28;19928;-69
2021/06/04 03:17:46;;;;;;;;;;;19.40;94.90;;;;;;5055259;28;19944;-69
2021/06/04 03:20:16;;;;;;;;;;;19.40;95.60;;;;;;5056194;28;19915;-70
2021/06/04 03:22:42;;;;;;;;;;;19.30;95.70;;;;;;5055933;28;19913;-70
2021/06/04 03:25:28;;;;;;;;;;;19.30;96.00;;;;;;5070298;28;19959;-69
2021/06/04 03:27:53;;;;;;;;;;;19.30;96.10;;;;;;5054823;28;20284;-70
2021/06/04 03:30:22;;;;;;;;;;;19.30;96.60;;;;;;5054818;28;19999;-73
2021/06/04 03:32:48;;;;;;;;;;;19.30;96.70;;;;;;5054507;28;19913;-72
2021/06/04 03:35:14;;;;;;;;;;;19.30;96.70;;;;;;5055209;28;19915;-73
2021/06/04 03:37:40;;;;;;;;;;;19.30;96.80;;;;;;5054880;28;19913;-72
2021/06/04 03:40:07;;;;;;;;;;;19.30;97.60;;;;;;5055023;28;19909;-73
2021/06/04 03:42:33;;;;;;;;;;;19.30;96.90;;;;;;5053988;28;19974;-73
2021/06/04 03:44:59;;;;;;;;;;;19.40;96.90;;;;;;5054611;28;20455;-74
2021/06/04 03:47:24;;;;;;;;;;;19.40;96.80;;;;;;5054696;28;20286;-74
2021/06/04 03:49:50;;;;;;;;;;;19.40;97.00;;;;;;5054426;28;20004;-73
2021/06/04 03:52:20;;;;;;;;;;;19.50;97.00;;;;;;5054621;28;20000;-73
2021/06/04 03:54:48;;;;;;;;;;;19.50;96.80;;;;;;5054378;28;20007;-73
2021/06/04 03:57:15;;;;;;;;;;;19.50;96.60;;;;;;5054494;28;19927;-74
2021/06/04 03:59:43;;;;;;;;;;;19.50;96.70;;;;;;5054339;28;19955;-74
2021/06/04 04:02:10;;;;;;;;;;;19.50;96.40;;;;;;5054167;28;19917;-74
2021/06/04 04:04:36;;;;;;;;;;;19.60;96.00;;;;;;5054205;28;19940;-74
2021/06/04 04:07:02;;;;;;;;;;;19.60;95.60;;;;;;5055226;28;20484;-74
2021/06/04 04:09:27;;;;;;;;;;;19.60;95.40;;;;;;5069381;28;20003;-75
2021/06/04 04:11:53;;;;;;;;;;;19.60;95.20;;;;;;5054592;28;20023;-75
2021/06/04 04:14:20;;;;;;;;;;;19.70;95.00;;;;;;5054381;28;19916;-73
2021/06/04 04:16:46;;;;;;;;;;;19.60;95.20;;;;;;5054405;28;19913;-73
2021/06/04 04:19:11;;;;;;;;;;;19.60;95.30;;;;;;5053942;28;20423;-73
2021/06/04 04:21:37;;;;;;;;;;;19.60;95.30;;;;;;5055425;28;19912;-73
2021/06/04 04:24:08;;;;;;;;;;;19.60;95.10;;;;;;5055563;28;19920;-72
2021/06/04 04:26:34;;;;;;;;;;;19.70;95.10;;;;;;5055259;28;20380;-73
2021/06/04 04:29:00;;;;;;;;;;;19.70;94.70;;;;;;5085461;22;20110;-81
2021/06/04 04:31:27;;;;;;;;;;;19.80;94.20;;;;;;5065296;28;19917;-81
2021/06/04 04:33:53;;;;;;;;;;;19.80;93.90;;;;;;5068174;28;19904;-81
2021/06/04 04:36:21;;;;;;;;;;;19.90;93.80;;;;;;5058073;28;19995;-81
2021/06/04 04:38:46;;;;;;;;;;;19.90;93.70;;;;;;5079827;28;19912;-80
2021/06/04 04:41:12;;;;;;;;;;;20.00;92.80;;;;;;5093148;28;19983;-82
2021/06/04 04:43:39;;;;;;;;;;;20.10;92.40;;;;;;5088108;28;19920;-81
2021/06/04 04:46:06;;;;;;;;;;;20.20;91.70;;;;;;5087391;28;19920;-80
2021/06/04 04:48:31;;;;;;;;;;;20.30;91.10;;;;;;5086587;28;19908;-80
2021/06/04 04:50:57;;;;;;;;;;;20.30;90.30;;;;;;5088010;28;19917;-81
2021/06/04 04:53:23;;;;;;;;;;;20.40;89.60;;;;;;5094347;28;19909;-82
2021/06/04 04:55:48;;;;;;;;;;;20.50;88.60;;;;;;5088433;28;19919;-82
2021/06/04 04:58:14;;;;;;;;;;;20.50;87.90;;;;;;5092281;28;19977;-81
2021/06/04 05:00:41;;;;;;;;;;;20.50;87.50;;;;;;5080815;28;19960;-80
2021/06/04 05:03:07;;;;;;;;;;;20.50;87.60;;;;;;5082977;28;20344;-81
2021/06/04 05:05:34;;;;;;;;;;;20.50;87.20;;;;;;5082273;28;19915;-82
2021/06/04 05:07:59;;;;;;;;;;;20.50;87.40;;;;;;5059604;28;19916;-76
2021/06/04 05:10:25;;;;;;;;;;;20.60;86.60;;;;;;5062045;28;19993;-77
2021/06/04 05:12:50;;;;;;;;;;;20.60;86.20;;;;;;5062556;28;20366;-77
2021/06/04 05:15:18;;;;;;;;;;;20.60;86.70;;;;;;5058922;28;19919;-76
2021/06/04 05:17:44;;;;;;;;;;;20.70;85.20;;;;;;5072821;28;20226;-76
2021/06/04 05:20:10;;;;;;;;;;;20.70;85.40;;;;;;5072915;28;20093;-76
2021/06/04 05:22:36;;;;;;;;;;;20.80;84.00;;;;;;5074379;28;19943;-76
2021/06/04 05:25:03;;;;;;;;;;;20.80;84.50;;;;;;5075388;28;19920;-77
2021/06/04 05:27:29;;;;;;;;;;;20.80;84.30;;;;;;5073988;28;19967;-76
2021/06/04 05:29:54;;;;;;;;;;;20.90;82.80;;;;;;5082122;28;19917;-77
2021/06/04 05:32:21;;;;;;;;;;;20.90;82.80;;;;;;5080005;28;20011;-79
2021/06/04 05:34:47;;;;;;;;;;;20.90;83.30;;;;;;5060503;28;19909;-80
2021/06/04 05:37:13;;;;;;;;;;;20.90;83.50;;;;;;5065912;28;19938;-80
2021/06/04 05:39:39;;;;;;;;;;;20.90;83.50;;;;;;5079188;28;19963;-78
2021/06/04 05:42:05;;;;;;;;;;;20.90;83.30;;;;;;5079850;28;19940;-78
2021/06/04 05:44:32;;;;;;;;;;;21.00;83.00;;;;;;5080713;28;19956;-79
2021/06/04 05:46:58;;;;;;;;;;;21.00;80.40;;;;;;5083990;28;19908;-79
2021/06/04 05:49:24;;;;;;;;;;;21.10;80.80;;;;;;5082863;28;19913;-79
2021/06/04 05:51:50;;;;;;;;;;;21.00;80.60;;;;;;5079479;28;19923;-79
2021/06/04 05:54:17;;;;;;;;;;;21.00;81.30;;;;;;5049403;28;19913;-79
2021/06/04 05:56:43;;;;;;;;;;;21.00;81.30;;;;;;5062851;28;20290;-79
2021/06/04 05:59:10;;;;;;;;;;;21.10;80.50;;;;;;5070861;28;19943;-80
2021/06/04 06:01:36;;;;;;;;;;;21.20;79.50;;;;;;5076976;28;19908;-79
2021/06/04 06:04:02;;;;;;;;;;;21.20;79.10;;;;;;5081843;28;19924;-78
2021/06/04 06:06:28;;;;;;;;;;;21.30;78.60;;;;;;5090462;28;19936;-78
2021/06/04 06:08:53;;;;;;;;;;;21.60;75.70;;;;;;5084824;28;19916;-77
2021/06/04 06:11:25;;;;;;;;;;;21.80;73.80;;;;;;5086919;28;19912;-78
2021/06/04 06:13:51;;;;;;;;;;;22.00;71.60;;;;;;5056149;28;19970;-79
2021/06/04 06:16:17;;;;;;;;;;;22.00;71.70;;;;;;5091447;28;19912;-80
2021/06/04 06:18:43;;;;;;;;;;;22.20;70.00;;;;;;5094283;28;20376;-78
2021/06/04 06:21:09;;;;;;;;;;;22.30;69.50;;;;;;5076810;28;19962;-78
2021/06/04 06:23:35;;;;;;;;;;;22.30;69.20;;;;;;5077606;28;19943;-79
2021/06/04 06:26:03;;;;;;;;;;;22.30;70.00;;;;;;5078193;28;19909;-78
2021/06/04 06:28:33;;;;;;;;;;;22.50;69.30;;;;;;5079501;28;19912;-79
2021/06/04 06:31:00;;;;;;;;;;;22.90;64.40;;;;;;5072950;28;20002;-79
2021/06/04 06:33:25;;;;;;;;;;;23.20;60.20;;;;;;5089771;28;19951;-78
2021/06/04 06:35:53;;;;;;;;;;;23.40;58.60;;;;;;5083435;28;19916;-78
2021/06/04 06:38:19;;;;;;;;;;;23.40;58.60;;;;;;5080096;28;20373;-79
2021/06/04 06:40:45;;;;;;;;;;;23.30;59.30;;;;;;5082394;28;19919;-77
2021/06/04 06:43:10;;;;;;;;;;;23.40;57.80;;;;;;5082823;28;19943;-79
2021/06/04 06:45:37;;;;;;;;;;;23.50;57.80;;;;;;5084200;28;19913;-78
2021/06/04 06:48:03;;;;;;;;;;;23.40;58.00;;;;;;5086567;28;19943;-80
2021/06/04 06:50:30;;;;;;;;;;;23.40;56.80;;;;;;5092194;28;19912;-80
2021/06/04 06:52:56;;;;;;;;;;;23.30;57.20;;;;;;5089482;28;19919;-78
2021/06/04 06:55:22;;;;;;;;;;;23.20;58.50;;;;;;5075377;28;19913;-78
2021/06/04 06:57:48;;;;;;;;;;;23.10;59.00;;;;;;5062239;28;20230;-78
2021/06/04 07:00:17;;;;;;;;;;;23.00;59.70;;;;;;5073670;28;19920;-77
2021/06/04 07:02:42;;;;;;;;;;;23.10;58.70;;;;;;5084347;28;19912;-75
2021/06/04 07:05:08;;;;;;;;;;;23.20;56.60;;;;;;5063494;28;19993;-76
2021/06/04 07:07:34;;;;;;;;;;;23.20;56.10;;;;;;5078839;28;20226;-74
2021/06/04 07:09:59;;;;;;;;;;;23.20;57.00;;;;;;5080869;28;19912;-77
2021/06/04 07:12:25;;;;;;;;;;;23.20;57.60;;;;;;5086007;28;19919;-75
2021/06/04 07:14:51;;;;;;;;;;;23.40;57.00;;;;;;5076329;28;19991;-76
2021/06/04 07:17:16;;;;;;;;;;;23.50;56.10;;;;;;5074034;28;19963;-76
2021/06/04 07:19:42;;;;;;;;;;;23.60;54.50;;;;;;5078399;28;19916;-79
2021/06/04 07:22:08;;;;;;;;;;;23.50;55.30;;;;;;5082513;28;19913;-78
2021/06/04 07:24:33;;;;;;;;;;;23.40;55.90;;;;;;5079216;28;19923;-77
2021/06/04 07:27:00;;;;;;;;;;;23.40;56.00;;;;;;5060916;28;19913;-76
2021/06/04 07:29:26;;;;;;;;;;;23.40;54.30;;;;;;5071529;28;20080;-77
2021/06/04 07:31:53;;;;;;;;;;;23.40;55.00;;;;;;5076080;28;19921;-77
2021/06/04 07:34:19;;;;;;;;;;;23.40;55.80;;;;;;5062138;28;19913;-76
2021/06/04 07:36:47;;;;;;;;;;;23.50;54.90;;;;;;5071976;28;20039;-78
2021/06/04 07:39:19;;;;;;;;;;;23.60;53.40;;;;;;5058867;28;19963;-76
2021/06/04 07:41:45;;;;;;;;;;;23.90;53.10;;;;;;5065956;28;19913;-76
2021/06/04 07:44:12;;;;;;;;;;;24.00;52.20;;;;;;5063791;28;19917;-76
2021/06/04 07:46:38;;;;;;;;;;;24.10;51.20;;;;;;5055568;28;19950;-76
2021/06/04 07:49:04;;;;;;;;;;;24.10;50.30;;;;;;5073377;28;19948;-77
2021/06/04 07:51:31;;;;;;;;;;;24.30;49.80;;;;;;5073504;28;20342;-76
2021/06/04 07:53:56;;;;;;;;;;;24.40;50.20;;;;;;5060644;28;19949;-77
2021/06/04 07:56:22;;;;;;;;;;;24.60;49.20;;;;;;5051246;28;19927;-77
2021/06/04 07:58:48;;;;;;;;;;;24.80;48.10;;;;;;5072526;28;19908;-77
2021/06/04 08:01:13;;;;;;;;;;;24.90;44.70;;;;;;5079772;28;19912;-77
2021/06/04 08:03:41;;;;;;;;;;;24.80;44.80;;;;;;5082217;28;19913;-77
2021/06/04 08:06:07;;;;;;;;;;;24.60;45.30;;;;;;5094414;28;20293;-76
2021/06/04 08:08:33;;;;;;;;;;;24.30;45.00;;;;;;5084597;28;20003;-77
2021/06/04 08:10:59;;;;;;;;;;;24.40;43.20;;;;;;5078005;28;19920;-77
2021/06/04 08:13:25;;;;;;;;;;;24.60;40.70;;;;;;5057442;28;19913;-76
2021/06/04 08:15:56;;;;;;;;;;;24.70;36.40;;;;;;5074683;28;19917;-77
2021/06/04 08:18:23;;;;;;;;;;;24.60;37.50;;;;;;5075782;28;19920;-76
2021/06/04 08:20:49;;;;;;;;;;;24.70;37.40;;;;;;5076205;28;20337;-78
2021/06/04 08:23:17;;;;;;;;;;;24.80;38.10;;;;;;5074588;28;20313;-77
2021/06/04 08:25:45;;;;;;;;;;;24.80;38.40;;;;;;5075187;28;19919;-77
2021/06/04 08:29:15;;;;;;;37.42;23.85;;;25.10;36.80;;;;;;5106754;27;20405;-79
2021/06/04 08:31:42;;;;;;;37.78;24.85;;;25.60;32.20;;;;;;5037997;28;20552;-78
2021/06/04 08:34:08;;;;;;;34.17;21.00;;;26.00;28.30;;;;;;5089471;28;20417;-77
2021/06/04 08:36:36;;;;;;;37.80;22.63;;;26.30;23.70;;;;;;5066739;28;20456;-78
2021/06/04 08:39:10;;;;;;;34.27;22.67;;;26.50;25.00;;;;;;5061655;28;20402;-80
2021/06/04 08:41:53;;;;;;;34.25;23.25;;;26.70;25.70;;;;;;5071580;28;20896;-77
2021/06/04 08:44:37;;;;;;;36.75;23.02;;;27.00;24.50;;;;;;5011001;23;20994;-74
2021/06/04 08:47:16;;;;;;;38.70;25.27;;;27.10;23.70;;;;;;4988086;28;20403;-76
2021/06/04 08:50:00;;;;;;;48.47;32.47;;;26.90;25.10;;;;;;4988706;28;20399;-75
2021/06/04 08:52:39;;;;;;;48.85;34.33;;;26.70;27.70;;;;;;4980263;28;20404;-75
2021/06/04 08:55:27;;;;;;;51.88;34.00;;;26.20;29.50;;;;;;4976979;28;20759;-74
2021/06/04 08:58:02;;;;;;;49.58;34.80;;;25.90;31.20;;;;;;4988512;28;20892;-77
2021/06/04 09:00:41;;;;;;;57.77;39.97;;;25.80;31.90;;;;;;4990052;28;20435;-75
2021/06/04 09:03:31;;;;;;;56.55;36.28;;;25.80;29.00;;;;;;4984178;28;20494;-74
2021/06/04 09:06:00;;;;;;;46.03;33.15;;;25.40;30.40;;;;;;4981966;28;20412;-76
2021/06/04 09:08:30;;;;;;;55.80;34.67;;;25.00;32.80;;;;;;4987216;28;20415;-76
2021/06/04 09:11:04;;;;;;;50.40;34.50;;;25.00;33.00;;;;;;5004185;28;20559;-76
2021/06/04 09:13:34;;;;;;;52.50;36.00;;;25.00;34.00;;;;;;4982805;28;20730;-75
2021/06/04 09:16:12;;;;;;;57.83;40.60;;;25.00;33.30;;;;;;4985045;28;20402;-75
2021/06/04 09:18:45;;;;;;;59.13;38.97;;;25.00;33.10;;;;;;4969075;28;20405;-75
2021/06/04 09:21:23;;;;;;;47.13;32.00;;;25.10;32.50;;;;;;4983763;28;20400;-72
2021/06/04 09:23:51;;;;;;;41.50;26.88;;;25.10;28.50;;;;;;4987911;28;20392;-74
2021/06/04 09:26:18;;;;;;;44.40;29.45;;;25.20;28.10;;;;;;4986637;28;20533;-75
2021/06/04 09:28:48;;;;;;;40.90;29.48;;;25.30;28.50;;;;;;4988088;28;20414;-74
2021/06/04 09:31:45;;;;;;;51.83;33.72;;;25.50;28.20;;;;;;4987607;28;20402;-74
2021/06/04 09:34:34;;;;;;;51.40;35.15;;;25.80;29.30;;;;;;4985416;28;20411;-76
2021/06/04 09:37:10;;;;;;;44.33;30.70;;;25.80;29.40;;;;;;4986225;28;20399;-75
2021/06/04 09:39:51;;;;;;;38.15;25.60;;;25.90;28.40;;;;;;4977004;28;20479;-74
2021/06/04 09:42:26;;;;;;;34.72;23.90;;;25.90;26.80;;;;;;4973543;28;20400;-74
2021/06/04 09:45:01;;;;;;;35.27;25.20;;;26.00;26.10;;;;;;4974168;28;20423;-74
2021/06/04 09:47:40;;;;;;;36.80;24.02;;;26.30;26.70;;;;;;4973760;28;20439;-74
2021/06/04 09:50:23;;;;;;;35.35;25.00;;;26.70;25.50;;;;;;4989020;28;20400;-75
2021/06/04 09:53:09;;;;;;;33.90;23.77;;;27.00;23.60;;;;;;4973736;28;20403;-75
2021/06/04 09:55:44;;;;;;;33.20;23.35;;;27.10;22.90;;;;;;4972666;28;20495;-75
2021/06/04 09:58:12;;;;;;;33.58;23.77;;;27.40;22.20;;;;;;4968676;28;20474;-74
2021/06/04 10:00:43;;;;;;;34.75;25.65;;;27.30;22.00;;;;;;4973631;28;20400;-74
2021/06/04 10:03:37;;;;;;;28.05;22.67;;;27.30;21.10;;;;;;4973611;28;20797;-74
2021/06/04 10:06:08;;;;;;;37.30;24.38;;;27.40;21.00;;;;;;4973489;28;20399;-75
2021/06/04 10:08:49;;;;;;;35.45;23.92;;;27.50;20.30;;;;;;4967340;28;20504;-74
2021/06/04 10:11:47;;;;;;;30.45;21.52;;;27.70;19.60;;;;;;4959950;28;20987;-74
2021/06/04 10:14:20;;;;;;;27.13;20.92;;;27.80;18.70;;;;;;4972976;28;20408;-75
2021/06/04 10:19:35;;;;;;;24.88;19.00;;;28.30;17.30;;;;;;4974262;28;20523;-74
2021/06/04 10:22:34;;;;;;;28.37;18.97;;;28.60;17.80;;;;;;4974561;28;20742;-76
2021/06/04 10:24:59;;;;;;;26.15;18.50;;;28.60;17.20;;;;;;4956933;28;20397;-76
2021/06/04 10:27:25;;;;;;;26.45;19.50;;;28.70;17.20;;;;;;4973612;28;20858;-75
2021/06/04 10:30:11;;;;;;;30.13;17.70;;;28.70;17.40;;;;;;4972161;28;20451;-75
2021/06/04 10:32:52;;;;;;;25.00;17.58;;;28.70;17.30;;;;;;4977488;28;20471;-74
2021/06/04 10:35:30;;;;;;;31.95;21.48;;;28.70;17.30;;;;;;4987542;28;20408;-76
2021/06/04 10:38:03;;;;;;;30.03;20.03;;;28.30;17.00;;;;;;4974967;28;20487;-75
2021/06/04 10:40:41;;;;;;;23.58;19.65;;;28.20;18.00;;;;;;4974564;28;20458;-76
2021/06/04 10:43:43;;;;;;;27.17;21.10;;;28.50;17.70;;;;;;4973848;28;20412;-76
2021/06/04 10:46:13;;;;;;;27.90;20.30;;;28.70;16.60;;;;;;4964571;28;20412;-73
2021/06/04 10:49:08;;;;;;;28.77;21.60;;;28.90;16.30;;;;;;4972999;28;20491;-74
2021/06/04 10:51:58;;;;;;;30.67;20.98;;;28.80;16.20;;;;;;4942517;28;20907;-73
2021/06/04 10:54:41;;;;;;;31.30;22.67;;;28.60;17.00;;;;;;4970816;28;20462;-75
2021/06/04 10:57:24;;;;;;;31.73;21.95;;;28.30;17.10;;;;;;4973038;28;20487;-75
2021/06/04 10:59:58;;;;;;;32.55;23.75;;;28.50;17.00;;;;;;4973206;28;20407;-75
2021/06/04 11:02:29;;;;;;;27.85;22.55;;;28.20;17.90;;;;;;4972465;28;20411;-75
2021/06/04 11:05:32;;;;;;;23.45;18.73;;;27.70;18.60;;;;;;4973401;28;20401;-76
2021/06/04 11:08:07;;;;;;;26.90;21.27;;;27.90;18.30;;;;;;4973158;28;20769;-75
2021/06/04 11:10:55;;;;;;;29.40;19.55;;;28.00;18.00;;;;;;4971224;28;20491;-75
2021/06/04 11:13:46;;;;;;;27.83;20.03;;;28.00;18.20;;;;;;4960371;28;20404;-74
2021/06/04 11:16:16;;;;;;;27.47;20.40;;;28.50;17.30;;;;;;4965345;28;20885;-74
2021/06/04 11:19:14;;;;;;;26.90;20.15;;;29.10;16.70;;;;;;4966341;28;20398;-74
2021/06/04 11:21:50;;;;;;;31.73;21.65;;;29.60;15.10;;;;;;4947943;28;20799;-75
2021/06/04 11:24:40;;;;;;;35.80;26.08;;;29.70;14.50;;;;;;4972390;28;20435;-75
2021/06/04 11:27:08;;;;;;;31.40;25.20;;;29.70;15.00;;;;;;4968843;28;21028;-75
2021/06/04 11:29:39;;;;;;;38.83;26.13;;;29.80;15.30;;;;;;4960639;28;20404;-74
2021/06/04 11:32:13;;;;;;;34.53;26.20;;;29.60;15.30;;;;;;4969064;28;20471;-74
2021/06/04 11:34:59;;;;;;;32.97;26.45;;;29.40;15.30;;;;;;4962590;28;20404;-75
2021/06/04 11:37:47;;;;;;;35.53;25.83;;;29.30;15.10;;;;;;4960130;28;20405;-73
2021/06/04 11:40:28;;;;;;;31.45;25.55;;;29.30;15.40;;;;;;4967545;28;20403;-74
2021/06/04 11:43:16;;;;;;;33.27;26.00;;;29.60;15.10;;;;;;4972702;28;20408;-75
2021/06/04 11:45:45;;;;;;;29.15;24.33;;;29.60;15.90;;;;;;4970941;28;20404;-74
2021/06/04 11:48:20;;;;;;;33.70;24.95;;;29.30;15.40;;;;;;4988105;28;20475;-76
2021/06/04 11:50:46;;;;;;;34.07;26.67;;;29.30;16.00;;;;;;4972001;28;20396;-75
2021/06/04 11:53:23;;;;;;;39.50;24.85;;;29.40;14.90;;;;;;4967342;28;20485;-75
2021/06/04 11:55:53;;;;;;;34.33;28.40;;;29.80;14.50;;;;;;4960238;28;20401;-77
2021/06/04 11:58:38;;;;;;;37.55;27.10;;;29.90;13.80;;;;;;4971519;28;20392;-75
2021/06/04 12:01:30;;;;;;;37.15;27.17;;;29.90;14.10;;;;;;4967415;28;20491;-75
2021/06/04 12:03:58;;;;;;;34.42;25.65;;;30.10;13.90;;;;;;4968747;28;20444;-75
2021/06/04 12:06:27;;;;;;;33.17;25.30;;;30.30;13.80;;;;;;4972580;28;20412;-74
2021/06/04 12:08:56;;;;;;;30.85;24.80;;;30.00;13.70;;;;;;4970410;28;20526;-75
2021/06/04 12:11:21;;;;;;;41.70;26.48;;;29.90;14.10;;;;;;4974206;28;20886;-75
2021/06/04 12:13:51;;;;;;;34.23;26.27;;;29.60;14.60;;;;;;4970927;28;20404;-76
2021/06/04 12:16:26;;;;;;;34.42;24.25;;;29.20;15.20;;;;;;4971288;28;20445;-74
2021/06/04 12:19:06;;;;;;;28.95;23.20;;;29.10;15.70;;;;;;4972629;28;20695;-77
2021/06/04 12:21:37;;;;;;;41.38;24.67;;;29.10;15.00;;;;;;4967713;28;20452;-77
2021/06/04 12:24:05;;;;;;;26.10;20.80;;;29.20;15.10;;;;;;4971481;28;20440;-72
2021/06/04 12:26:35;;;;;;;28.30;21.60;;;29.50;13.40;;;;;;4968607;28;20407;-74
2021/06/04 12:29:21;;;;;;;28.33;21.95;;;29.60;13.30;;;;;;4955540;28;20429;-77
2021/06/04 12:31:54;;;;;;;37.20;24.45;;;29.70;13.20;;;;;;4974587;28;20416;-76
2021/06/04 12:34:47;;;;;;;26.30;22.97;;;29.70;13.60;;;;;;4970839;28;20913;-76
2021/06/04 12:37:22;;;;;;;30.53;24.40;;;29.50;13.90;;;;;;4957094;29;20417;-76
2021/06/04 12:40:21;;;;;;;32.80;23.10;;;29.70;14.30;;;;;;4968747;28;20491;-75
2021/06/04 12:43:04;;;;;;;28.42;22.90;;;30.00;13.80;;;;;;4986201;28;20459;-81
2021/06/04 12:45:29;;;;;;;28.00;22.88;;;30.30;12.60;;;;;;4992936;28;20519;-79
2021/06/04 12:48:22;;;;;;;30.02;23.40;;;30.50;13.10;;;;;;4980297;28;20446;-80
2021/06/04 12:50:57;;;;;;;23.90;19.73;;;30.60;11.90;;;;;;4996044;28;20478;-79
2021/06/04 12:53:25;;;;;;;21.48;18.13;;;30.50;12.10;;;;;;4973285;28;20400;-76
2021/06/04 12:56:13;;;;;;;21.80;16.80;;;30.90;11.90;;;;;;4971967;28;20885;-77
2021/06/04 12:59:07;;;;;;;23.83;18.10;;;31.10;10.30;;;;;;4963158;28;20431;-76
2021/06/04 13:01:37;;;;;;;19.43;16.30;;;30.80;10.20;;;;;;4972968;28;20499;-77
2021/06/04 13:04:20;;;;;;;28.25;16.20;;;30.80;10.90;;;;;;4988022;28;20404;-77
2021/06/04 13:06:48;;;;;;;25.60;17.10;;;30.90;10.50;;;;;;4972374;28;20406;-77
2021/06/04 13:09:39;;;;;;;34.30;18.45;;;31.30;9.70;;;;;;4974163;28;20967;-78
2021/06/04 13:12:28;;;;;;;16.23;14.13;;;31.30;10.10;;;;;;4961285;28;20386;-77
2021/06/04 13:14:56;;;;;;;17.53;15.77;;;31.80;10.60;;;;;;4975804;28;20396;-78
2021/06/04 13:17:21;;;;;;;18.40;15.77;;;32.10;8.60;;;;;;4977897;28;20483;-78
2021/06/04 13:19:49;;;;;;;19.97;14.90;;;32.10;8.70;;;;;;4977979;28;20474;-77
2021/06/04 13:22:24;;;;;;;18.45;13.57;;;32.30;8.50;;;;;;4976027;28;20403;-77
2021/06/04 13:24:54;;;;;;;20.92;14.02;;;32.00;9.30;;;;;;4976862;28;20403;-77
2021/06/04 13:27:26;;;;;;;20.17;13.90;;;31.90;9.40;;;;;;4976896;28;20415;-78
2021/06/04 13:29:56;;;;;;;16.47;14.27;;;31.60;9.30;;;;;;4977360;28;20433;-78
2021/06/04 13:32:31;;;;;;;20.55;14.68;;;31.20;9.80;;;;;;4977494;28;20908;-77
2021/06/04 13:35:02;;;;;;;22.47;14.50;;;31.00;10.10;;;;;;4977751;28;20436;-79
2021/06/04 13:37:29;;;;;;;20.50;15.90;;;30.80;9.80;;;;;;4991086;28;20398;-77
2021/06/04 13:39:56;;;;;;;22.15;17.30;;;30.40;10.60;;;;;;4956317;29;20918;-77
2021/06/04 13:42:33;;;;;;;18.23;16.27;;;29.80;11.30;;;;;;4959738;28;20407;-77
2021/06/04 13:45:00;;;;;;;19.48;16.77;;;29.60;11.90;;;;;;4977451;28;20967;-78
2021/06/04 13:47:47;;;;;;;20.48;16.88;;;29.60;12.00;;;;;;4977672;28;20467;-77
2021/06/04 13:50:48;;;;;;;22.00;17.00;;;29.50;11.90;;;;;;4975366;28;20399;-78
2021/06/04 13:53:15;;;;;;;23.88;19.65;;;29.70;11.80;;;;;;4985139;28;20409;-78
2021/06/04 13:55:42;;;;;;;26.57;20.73;;;29.70;12.30;;;;;;4990051;28;20399;-77
2021/06/04 13:58:23;;;;;;;26.60;19.85;;;29.60;13.10;;;;;;4978055;28;20392;-78